sensor_id;sensor_type;location;lat;lon;timestamp;temperature;humidity
44111;DHT22;29774;52.664;5.074;2024-02-26T00:02:16;5.70;87.30
44111;DHT22;29774;52.664;5.074;2024-02-26T00:04:42;5.60;87.30
44111;DHT22;29774;52.664;5.074;2024-02-26T00:07:08;5.60;87.40
44111;DHT22;29774;52.664;5.074;2024-02-26T00:09:33;5.60;87.50
44111;DHT22;29774;52.664;5.074;2024-02-26T00:12:04;5.60;87.30
44111;DHT22;29774;52.664;5.074;2024-02-26T00:14:31;5.60;87.20
44111;DHT22;29774;52.664;5.074;2024-02-26T00:16:56;5.40;87.30
44111;DHT22;29774;52.664;5.074;2024-02-26T00:19:22;5.30;87.60
44111;DHT22;29774;52.664;5.074;2024-02-26T00:21:48;5.30;87.70
44111;DHT22;29774;52.664;5.074;2024-02-26T00:24:13;5.30;88.00
44111;DHT22;29774;52.664;5.074;2024-02-26T00:26:39;5.30;88.00
44111;DHT22;29774;52.664;5.074;2024-02-26T00:29:05;5.40;87.90
44111;DHT22;29774;52.664;5.074;2024-02-26T00:31:30;5.40;87.70
44111;DHT22;29774;52.664;5.074;2024-02-26T00:33:56;5.30;87.80
44111;DHT22;29774;52.664;5.074;2024-02-26T00:36:22;5.20;88.00
44111;DHT22;29774;52.664;5.074;2024-02-26T00:38:48;5.20;88.10
44111;DHT22;29774;52.664;5.074;2024-02-26T00:41:17;5.20;88.20
44111;DHT22;29774;52.664;5.074;2024-02-26T00:43:43;5.40;88.10
44111;DHT22;29774;52.664;5.074;2024-02-26T00:46:08;5.30;88.10
44111;DHT22;29774;52.664;5.074;2024-02-26T00:48:35;5.30;88.10
44111;DHT22;29774;52.664;5.074;2024-02-26T00:51:00;5.30;88.00
44111;DHT22;29774;52.664;5.074;2024-02-26T00:53:26;5.30;87.90
44111;DHT22;29774;52.664;5.074;2024-02-26T00:55:51;5.30;87.80
44111;DHT22;29774;52.664;5.074;2024-02-26T00:58:17;5.20;88.00
44111;DHT22;29774;52.664;5.074;2024-02-26T01:00:43;5.20;88.00
44111;DHT22;29774;52.664;5.074;2024-02-26T01:03:09;5.20;88.10
44111;DHT22;29774;52.664;5.074;2024-02-26T01:05:35;5.20;88.20
44111;DHT22;29774;52.664;5.074;2024-02-26T01:08:03;5.30;88.20
44111;DHT22;29774;52.664;5.074;2024-02-26T01:10:29;5.20;88.00
44111;DHT22;29774;52.664;5.074;2024-02-26T01:12:54;5.30;87.80
44111;DHT22;29774;52.664;5.074;2024-02-26T01:15:20;5.20;87.80
44111;DHT22;29774;52.664;5.074;2024-02-26T01:17:52;5.20;87.90
44111;DHT22;29774;52.664;5.074;2024-02-26T01:20:17;5.30;87.60
44111;DHT22;29774;52.664;5.074;2024-02-26T01:22:44;5.40;87.80
44111;DHT22;29774;52.664;5.074;2024-02-26T01:25:09;5.40;87.50
44111;DHT22;29774;52.664;5.074;2024-02-26T01:27:38;5.30;87.20
44111;DHT22;29774;52.664;5.074;2024-02-26T01:30:07;5.20;87.40
44111;DHT22;29774;52.664;5.074;2024-02-26T01:32:32;5.20;87.60
44111;DHT22;29774;52.664;5.074;2024-02-26T01:34:58;5.10;87.60
44111;DHT22;29774;52.664;5.074;2024-02-26T01:37:24;5.20;87.60
44111;DHT22;29774;52.664;5.074;2024-02-26T01:39:49;5.10;87.60
44111;DHT22;29774;52.664;5.074;2024-02-26T01:42:15;5.00;87.80
44111;DHT22;29774;52.664;5.074;2024-02-26T01:44:41;5.10;87.80
44111;DHT22;29774;52.664;5.074;2024-02-26T01:47:10;5.10;87.80
44111;DHT22;29774;52.664;5.074;2024-02-26T01:49:37;5.20;87.60
44111;DHT22;29774;52.664;5.074;2024-02-26T01:52:04;5.10;87.70
44111;DHT22;29774;52.664;5.074;2024-02-26T01:54:31;5.20;87.90
44111;DHT22;29774;52.664;5.074;2024-02-26T01:56:58;5.20;87.70
44111;DHT22;29774;52.664;5.074;2024-02-26T01:59:24;5.20;87.60
44111;DHT22;29774;52.664;5.074;2024-02-26T02:01:54;5.40;87.60
44111;DHT22;29774;52.664;5.074;2024-02-26T02:04:20;5.40;87.40
44111;DHT22;29774;52.664;5.074;2024-02-26T02:06:47;5.30;87.00
44111;DHT22;29774;52.664;5.074;2024-02-26T02:09:13;5.20;87.30
44111;DHT22;29774;52.664;5.074;2024-02-26T02:11:39;5.10;87.40
44111;DHT22;29774;52.664;5.074;2024-02-26T02:14:05;5.20;87.60
44111;DHT22;29774;52.664;5.074;2024-02-26T02:16:31;5.10;87.40
44111;DHT22;29774;52.664;5.074;2024-02-26T02:18:58;5.20;87.50
44111;DHT22;29774;52.664;5.074;2024-02-26T02:21:24;5.10;87.50
44111;DHT22;29774;52.664;5.074;2024-02-26T02:23:49;5.10;87.50
44111;DHT22;29774;52.664;5.074;2024-02-26T02:26:15;5.20;87.50
44111;DHT22;29774;52.664;5.074;2024-02-26T02:28:41;5.10;87.70
44111;DHT22;29774;52.664;5.074;2024-02-26T02:31:07;5.20;87.90
44111;DHT22;29774;52.664;5.074;2024-02-26T02:33:34;5.10;87.80
44111;DHT22;29774;52.664;5.074;2024-02-26T02:36:00;5.00;87.70
44111;DHT22;29774;52.664;5.074;2024-02-26T02:38:26;5.10;87.90
44111;DHT22;29774;52.664;5.074;2024-02-26T02:40:52;5.10;87.90
44111;DHT22;29774;52.664;5.074;2024-02-26T02:43:18;5.10;87.90
44111;DHT22;29774;52.664;5.074;2024-02-26T02:45:44;5.20;87.90
44111;DHT22;29774;52.664;5.074;2024-02-26T02:48:11;5.10;87.80
44111;DHT22;29774;52.664;5.074;2024-02-26T02:50:36;5.10;87.80
44111;DHT22;29774;52.664;5.074;2024-02-26T02:53:02;5.20;87.80
44111;DHT22;29774;52.664;5.074;2024-02-26T02:55:27;5.10;87.80
44111;DHT22;29774;52.664;5.074;2024-02-26T02:57:53;5.10;88.00
44111;DHT22;29774;52.664;5.074;2024-02-26T03:00:19;5.00;87.90
44111;DHT22;29774;52.664;5.074;2024-02-26T03:02:45;5.10;88.10
44111;DHT22;29774;52.664;5.074;2024-02-26T03:05:11;5.20;88.00
44111;DHT22;29774;52.664;5.074;2024-02-26T03:07:37;5.40;87.90
44111;DHT22;29774;52.664;5.074;2024-02-26T03:10:03;5.10;87.60
44111;DHT22;29774;52.664;5.074;2024-02-26T03:12:30;5.00;87.70
44111;DHT22;29774;52.664;5.074;2024-02-26T03:14:55;5.10;87.90
44111;DHT22;29774;52.664;5.074;2024-02-26T03:17:21;5.10;87.80
44111;DHT22;29774;52.664;5.074;2024-02-26T03:19:49;5.10;87.90
44111;DHT22;29774;52.664;5.074;2024-02-26T03:22:19;5.20;87.40
44111;DHT22;29774;52.664;5.074;2024-02-26T03:24:44;5.20;87.50
44111;DHT22;29774;52.664;5.074;2024-02-26T03:27:10;5.20;87.50
44111;DHT22;29774;52.664;5.074;2024-02-26T03:29:37;5.20;87.40
44111;DHT22;29774;52.664;5.074;2024-02-26T03:32:03;5.10;87.60
44111;DHT22;29774;52.664;5.074;2024-02-26T03:34:29;5.20;87.70
44111;DHT22;29774;52.664;5.074;2024-02-26T03:36:56;5.40;87.70
44111;DHT22;29774;52.664;5.074;2024-02-26T03:39:22;5.50;87.30
44111;DHT22;29774;52.664;5.074;2024-02-26T03:41:48;5.20;87.40
44111;DHT22;29774;52.664;5.074;2024-02-26T03:44:14;5.30;87.50
44111;DHT22;29774;52.664;5.074;2024-02-26T03:46:40;5.20;87.30
44111;DHT22;29774;52.664;5.074;2024-02-26T03:49:08;5.20;87.60
44111;DHT22;29774;52.664;5.074;2024-02-26T03:51:33;5.40;87.60
44111;DHT22;29774;52.664;5.074;2024-02-26T03:53:59;5.20;87.10
44111;DHT22;29774;52.664;5.074;2024-02-26T03:56:26;5.30;87.20
44111;DHT22;29774;52.664;5.074;2024-02-26T03:58:52;5.10;87.30
44111;DHT22;29774;52.664;5.074;2024-02-26T04:01:18;5.20;87.50
44111;DHT22;29774;52.664;5.074;2024-02-26T04:03:43;5.20;87.60
44111;DHT22;29774;52.664;5.074;2024-02-26T04:06:10;5.00;87.40
44111;DHT22;29774;52.664;5.074;2024-02-26T04:08:36;5.00;87.40
44111;DHT22;29774;52.664;5.074;2024-02-26T04:11:02;5.00;87.70
44111;DHT22;29774;52.664;5.074;2024-02-26T04:13:32;5.00;87.90
44111;DHT22;29774;52.664;5.074;2024-02-26T04:15:59;5.00;87.80
44111;DHT22;29774;52.664;5.074;2024-02-26T04:18:26;4.90;87.80
44111;DHT22;29774;52.664;5.074;2024-02-26T04:20:52;5.00;87.70
44111;DHT22;29774;52.664;5.074;2024-02-26T04:23:18;5.00;87.70
44111;DHT22;29774;52.664;5.074;2024-02-26T04:25:43;4.90;87.60
44111;DHT22;29774;52.664;5.074;2024-02-26T04:28:09;5.20;87.70
44111;DHT22;29774;52.664;5.074;2024-02-26T04:30:35;5.20;87.50
44111;DHT22;29774;52.664;5.074;2024-02-26T04:33:00;5.40;87.60
44111;DHT22;29774;52.664;5.074;2024-02-26T04:35:26;5.60;87.20
44111;DHT22;29774;52.664;5.074;2024-02-26T04:37:51;5.50;86.80
44111;DHT22;29774;52.664;5.074;2024-02-26T04:40:17;5.60;86.30
44111;DHT22;29774;52.664;5.074;2024-02-26T04:42:42;6.10;87.40
44111;DHT22;29774;52.664;5.074;2024-02-26T04:45:08;6.20;87.10
44111;DHT22;29774;52.664;5.074;2024-02-26T04:47:34;5.70;85.40
44111;DHT22;29774;52.664;5.074;2024-02-26T04:50:00;5.50;86.00
44111;DHT22;29774;52.664;5.074;2024-02-26T04:52:25;5.40;86.30
44111;DHT22;29774;52.664;5.074;2024-02-26T04:54:51;5.50;86.30
44111;DHT22;29774;52.664;5.074;2024-02-26T04:57:17;5.40;86.50
44111;DHT22;29774;52.664;5.074;2024-02-26T04:59:44;5.40;86.40
44111;DHT22;29774;52.664;5.074;2024-02-26T05:02:11;5.40;86.20
44111;DHT22;29774;52.664;5.074;2024-02-26T05:04:37;5.60;86.50
44111;DHT22;29774;52.664;5.074;2024-02-26T05:07:03;5.40;86.30
44111;DHT22;29774;52.664;5.074;2024-02-26T05:09:29;5.30;86.30
44111;DHT22;29774;52.664;5.074;2024-02-26T05:11:54;5.70;86.00
44111;DHT22;29774;52.664;5.074;2024-02-26T05:14:20;5.40;86.10
44111;DHT22;29774;52.664;5.074;2024-02-26T05:16:47;5.40;86.20
44111;DHT22;29774;52.664;5.074;2024-02-26T05:19:13;5.30;86.20
44111;DHT22;29774;52.664;5.074;2024-02-26T05:21:38;5.50;86.30
44111;DHT22;29774;52.664;5.074;2024-02-26T05:24:05;5.60;86.20
44111;DHT22;29774;52.664;5.074;2024-02-26T05:26:31;5.30;85.70
44111;DHT22;29774;52.664;5.074;2024-02-26T05:28:57;5.30;86.00
44111;DHT22;29774;52.664;5.074;2024-02-26T05:31:26;5.30;86.10
44111;DHT22;29774;52.664;5.074;2024-02-26T05:33:51;5.20;85.90
44111;DHT22;29774;52.664;5.074;2024-02-26T05:36:21;5.20;86.10
44111;DHT22;29774;52.664;5.074;2024-02-26T05:38:48;5.50;86.30
44111;DHT22;29774;52.664;5.074;2024-02-26T05:41:15;5.40;85.80
44111;DHT22;29774;52.664;5.074;2024-02-26T05:43:41;5.60;86.40
44111;DHT22;29774;52.664;5.074;2024-02-26T05:46:06;5.90;86.60
44111;DHT22;29774;52.664;5.074;2024-02-26T05:48:32;6.00;84.60
44111;DHT22;29774;52.664;5.074;2024-02-26T05:50:57;5.40;84.70
44111;DHT22;29774;52.664;5.074;2024-02-26T05:53:23;5.40;85.20
44111;DHT22;29774;52.664;5.074;2024-02-26T05:55:49;5.30;85.30
44111;DHT22;29774;52.664;5.074;2024-02-26T05:58:14;5.20;85.30
44111;DHT22;29774;52.664;5.074;2024-02-26T06:00:40;5.00;85.80
44111;DHT22;29774;52.664;5.074;2024-02-26T06:03:06;5.00;86.10
44111;DHT22;29774;52.664;5.074;2024-02-26T06:05:31;5.00;86.40
44111;DHT22;29774;52.664;5.074;2024-02-26T06:07:57;5.20;86.30
44111;DHT22;29774;52.664;5.074;2024-02-26T06:10:22;5.00;86.00
44111;DHT22;29774;52.664;5.074;2024-02-26T06:12:48;5.00;86.40
44111;DHT22;29774;52.664;5.074;2024-02-26T06:15:14;4.90;86.50
44111;DHT22;29774;52.664;5.074;2024-02-26T06:17:39;4.90;86.80
44111;DHT22;29774;52.664;5.074;2024-02-26T06:20:06;4.90;86.60
44111;DHT22;29774;52.664;5.074;2024-02-26T06:22:32;5.00;86.80
44111;DHT22;29774;52.664;5.074;2024-02-26T06:24:57;5.00;86.80
44111;DHT22;29774;52.664;5.074;2024-02-26T06:27:23;5.20;86.30
44111;DHT22;29774;52.664;5.074;2024-02-26T06:29:49;5.20;86.50
44111;DHT22;29774;52.664;5.074;2024-02-26T06:32:15;5.40;85.90
44111;DHT22;29774;52.664;5.074;2024-02-26T06:34:41;5.30;86.20
44111;DHT22;29774;52.664;5.074;2024-02-26T06:37:08;5.20;86.20
44111;DHT22;29774;52.664;5.074;2024-02-26T06:39:33;5.20;86.00
44111;DHT22;29774;52.664;5.074;2024-02-26T06:41:59;5.20;86.10
44111;DHT22;29774;52.664;5.074;2024-02-26T06:44:27;5.40;86.40
44111;DHT22;29774;52.664;5.074;2024-02-26T06:46:57;5.60;86.20
44111;DHT22;29774;52.664;5.074;2024-02-26T06:49:23;5.50;85.80
44111;DHT22;29774;52.664;5.074;2024-02-26T06:51:49;5.30;85.30
44111;DHT22;29774;52.664;5.074;2024-02-26T06:54:14;5.10;85.40
44111;DHT22;29774;52.664;5.074;2024-02-26T06:56:40;5.20;85.60
44111;DHT22;29774;52.664;5.074;2024-02-26T06:59:06;5.20;85.40
44111;DHT22;29774;52.664;5.074;2024-02-26T07:01:31;5.30;85.20
44111;DHT22;29774;52.664;5.074;2024-02-26T07:03:57;5.70;86.10
44111;DHT22;29774;52.664;5.074;2024-02-26T07:06:22;5.70;84.50
44111;DHT22;29774;52.664;5.074;2024-02-26T07:08:48;5.80;85.50
44111;DHT22;29774;52.664;5.074;2024-02-26T07:11:13;5.80;84.30
44111;DHT22;29774;52.664;5.074;2024-02-26T07:13:39;6.30;86.80
44111;DHT22;29774;52.664;5.074;2024-02-26T07:16:05;6.20;84.40
44111;DHT22;29774;52.664;5.074;2024-02-26T07:18:31;5.80;83.10
44111;DHT22;29774;52.664;5.074;2024-02-26T07:20:56;5.50;83.50
44111;DHT22;29774;52.664;5.074;2024-02-26T07:23:22;5.70;83.90
44111;DHT22;29774;52.664;5.074;2024-02-26T07:25:48;5.70;84.10
44111;DHT22;29774;52.664;5.074;2024-02-26T07:28:15;5.60;83.20
44111;DHT22;29774;52.664;5.074;2024-02-26T07:30:41;5.50;83.80
44111;DHT22;29774;52.664;5.074;2024-02-26T07:33:07;5.60;83.50
44111;DHT22;29774;52.664;5.074;2024-02-26T07:35:33;5.50;83.30
44111;DHT22;29774;52.664;5.074;2024-02-26T07:37:59;5.50;83.60
44111;DHT22;29774;52.664;5.074;2024-02-26T07:40:24;5.60;83.50
44111;DHT22;29774;52.664;5.074;2024-02-26T07:42:51;5.50;83.70
44111;DHT22;29774;52.664;5.074;2024-02-26T07:45:16;5.60;83.70
44111;DHT22;29774;52.664;5.074;2024-02-26T07:47:45;5.50;83.40
44111;DHT22;29774;52.664;5.074;2024-02-26T07:50:11;5.60;83.90
44111;DHT22;29774;52.664;5.074;2024-02-26T07:52:37;5.60;83.10
44111;DHT22;29774;52.664;5.074;2024-02-26T07:55:03;5.50;83.30
44111;DHT22;29774;52.664;5.074;2024-02-26T07:57:29;6.10;84.30
44111;DHT22;29774;52.664;5.074;2024-02-26T07:59:55;5.70;82.80
44111;DHT22;29774;52.664;5.074;2024-02-26T08:02:21;5.90;83.50
44111;DHT22;29774;52.664;5.074;2024-02-26T08:04:47;5.70;83.00
44111;DHT22;29774;52.664;5.074;2024-02-26T08:07:13;5.70;83.80
44111;DHT22;29774;52.664;5.074;2024-02-26T08:09:38;6.20;84.70
44111;DHT22;29774;52.664;5.074;2024-02-26T08:12:04;6.10;83.00
44111;DHT22;29774;52.664;5.074;2024-02-26T08:14:30;5.80;83.30
44111;DHT22;29774;52.664;5.074;2024-02-26T08:16:58;5.70;83.70
44111;DHT22;29774;52.664;5.074;2024-02-26T08:19:24;6.10;84.30
44111;DHT22;29774;52.664;5.074;2024-02-26T08:21:50;5.90;83.80
44111;DHT22;29774;52.664;5.074;2024-02-26T08:24:15;6.20;84.00
44111;DHT22;29774;52.664;5.074;2024-02-26T08:26:41;5.90;83.60
44111;DHT22;29774;52.664;5.074;2024-02-26T08:29:06;6.10;83.20
44111;DHT22;29774;52.664;5.074;2024-02-26T08:31:32;6.30;83.30
44111;DHT22;29774;52.664;5.074;2024-02-26T08:33:57;5.80;83.10
44111;DHT22;29774;52.664;5.074;2024-02-26T08:36:24;5.90;84.00
44111;DHT22;29774;52.664;5.074;2024-02-26T08:38:50;6.20;83.10
44111;DHT22;29774;52.664;5.074;2024-02-26T08:41:15;6.00;82.30
44111;DHT22;29774;52.664;5.074;2024-02-26T08:43:41;5.80;83.10
44111;DHT22;29774;52.664;5.074;2024-02-26T08:46:09;6.30;85.00
44111;DHT22;29774;52.664;5.074;2024-02-26T08:48:39;6.70;83.40
44111;DHT22;29774;52.664;5.074;2024-02-26T08:51:06;6.30;82.80
44111;DHT22;29774;52.664;5.074;2024-02-26T08:53:32;6.70;83.10
44111;DHT22;29774;52.664;5.074;2024-02-26T08:55:58;6.50;82.20
44111;DHT22;29774;52.664;5.074;2024-02-26T08:58:23;6.20;81.40
44111;DHT22;29774;52.664;5.074;2024-02-26T09:00:49;6.20;81.50
44111;DHT22;29774;52.664;5.074;2024-02-26T09:03:14;5.90;82.00
44111;DHT22;29774;52.664;5.074;2024-02-26T09:05:40;5.80;82.60
44111;DHT22;29774;52.664;5.074;2024-02-26T09:08:06;5.90;82.20
44111;DHT22;29774;52.664;5.074;2024-02-26T09:10:32;5.90;82.50
44111;DHT22;29774;52.664;5.074;2024-02-26T09:12:58;5.90;82.20
44111;DHT22;29774;52.664;5.074;2024-02-26T09:15:24;5.90;82.50
44111;DHT22;29774;52.664;5.074;2024-02-26T09:17:49;6.10;82.60
44111;DHT22;29774;52.664;5.074;2024-02-26T09:20:16;6.20;82.10
44111;DHT22;29774;52.664;5.074;2024-02-26T09:22:46;6.40;82.00
44111;DHT22;29774;52.664;5.074;2024-02-26T09:25:11;6.50;82.10
44111;DHT22;29774;52.664;5.074;2024-02-26T09:27:37;6.70;81.00
44111;DHT22;29774;52.664;5.074;2024-02-26T09:30:03;6.80;82.90
44111;DHT22;29774;52.664;5.074;2024-02-26T09:32:28;7.30;80.80
44111;DHT22;29774;52.664;5.074;2024-02-26T09:34:55;8.20;81.30
44111;DHT22;29774;52.664;5.074;2024-02-26T09:37:21;8.10;80.50
44111;DHT22;29774;52.664;5.074;2024-02-26T09:39:47;8.10;79.60
44111;DHT22;29774;52.664;5.074;2024-02-26T09:42:13;7.80;80.10
44111;DHT22;29774;52.664;5.074;2024-02-26T09:44:40;8.00;76.80
44111;DHT22;29774;52.664;5.074;2024-02-26T09:47:09;7.60;75.70
44111;DHT22;29774;52.664;5.074;2024-02-26T09:49:36;7.20;76.90
44111;DHT22;29774;52.664;5.074;2024-02-26T09:52:04;7.00;77.80
44111;DHT22;29774;52.664;5.074;2024-02-26T09:54:31;7.00;78.40
44111;DHT22;29774;52.664;5.074;2024-02-26T09:57:00;7.20;80.20
44111;DHT22;29774;52.664;5.074;2024-02-26T09:59:27;7.20;78.50
44111;DHT22;29774;52.664;5.074;2024-02-26T10:01:53;7.70;78.40
44111;DHT22;29774;52.664;5.074;2024-02-26T10:04:20;7.20;77.50
44111;DHT22;29774;52.664;5.074;2024-02-26T10:06:47;8.10;81.60
44111;DHT22;29774;52.664;5.074;2024-02-26T10:09:13;7.70;76.80
44111;DHT22;29774;52.664;5.074;2024-02-26T10:11:41;7.70;78.50
44111;DHT22;29774;52.664;5.074;2024-02-26T10:14:08;7.10;77.70
44111;DHT22;29774;52.664;5.074;2024-02-26T10:16:34;7.60;80.40
44111;DHT22;29774;52.664;5.074;2024-02-26T10:19:00;8.20;83.20
44111;DHT22;29774;52.664;5.074;2024-02-26T10:21:26;8.20;77.80
44111;DHT22;29774;52.664;5.074;2024-02-26T10:23:52;7.60;76.40
44111;DHT22;29774;52.664;5.074;2024-02-26T10:26:17;7.70;79.70
44111;DHT22;29774;52.664;5.074;2024-02-26T10:28:44;8.10;78.80
44111;DHT22;29774;52.664;5.074;2024-02-26T10:31:11;7.90;76.60
44111;DHT22;29774;52.664;5.074;2024-02-26T10:33:39;7.50;77.40
44111;DHT22;29774;52.664;5.074;2024-02-26T10:36:05;7.80;81.50
44111;DHT22;29774;52.664;5.074;2024-02-26T10:38:32;8.00;77.30
44111;DHT22;29774;52.664;5.074;2024-02-26T10:40:58;7.40;77.10
44111;DHT22;29774;52.664;5.074;2024-02-26T10:43:25;7.20;78.50
44111;DHT22;29774;52.664;5.074;2024-02-26T10:45:51;8.00;82.20
44111;DHT22;29774;52.664;5.074;2024-02-26T10:48:17;8.70;77.80
44111;DHT22;29774;52.664;5.074;2024-02-26T10:50:43;7.80;76.00
44111;DHT22;29774;52.664;5.074;2024-02-26T10:53:17;7.50;77.10
44111;DHT22;29774;52.664;5.074;2024-02-26T10:55:52;7.40;78.40
44111;DHT22;29774;52.664;5.074;2024-02-26T10:58:20;7.60;77.60
44111;DHT22;29774;52.664;5.074;2024-02-26T11:00:48;7.40;77.50
44111;DHT22;29774;52.664;5.074;2024-02-26T11:03:15;8.30;79.80
44111;DHT22;29774;52.664;5.074;2024-02-26T11:05:49;8.00;75.20
44111;DHT22;29774;52.664;5.074;2024-02-26T11:08:19;7.70;76.90
44111;DHT22;29774;52.664;5.074;2024-02-26T11:10:52;7.80;76.70
44111;DHT22;29774;52.664;5.074;2024-02-26T11:13:19;8.50;80.80
44111;DHT22;29774;52.664;5.074;2024-02-26T11:15:46;9.10;78.90
44111;DHT22;29774;52.664;5.074;2024-02-26T11:18:15;9.30;75.90
44111;DHT22;29774;52.664;5.074;2024-02-26T11:20:42;9.80;73.90
44111;DHT22;29774;52.664;5.074;2024-02-26T11:23:08;9.50;71.80
44111;DHT22;29774;52.664;5.074;2024-02-26T11:25:35;9.00;73.10
44111;DHT22;29774;52.664;5.074;2024-02-26T11:28:05;8.70;72.10
44111;DHT22;29774;52.664;5.074;2024-02-26T11:30:33;8.00;74.80
44111;DHT22;29774;52.664;5.074;2024-02-26T11:33:00;8.20;77.80
44111;DHT22;29774;52.664;5.074;2024-02-26T11:35:27;8.70;75.60
44111;DHT22;29774;52.664;5.074;2024-02-26T11:37:54;9.00;76.50
44111;DHT22;29774;52.664;5.074;2024-02-26T11:40:23;9.10;72.70
44111;DHT22;29774;52.664;5.074;2024-02-26T11:42:49;9.10;78.70
44111;DHT22;29774;52.664;5.074;2024-02-26T11:48:05;9.10;74.80
44111;DHT22;29774;52.664;5.074;2024-02-26T11:50:39;8.40;74.80
44111;DHT22;29774;52.664;5.074;2024-02-26T11:53:28;9.00;80.80
44111;DHT22;29774;52.664;5.074;2024-02-26T11:58:42;10.00;78.50
44111;DHT22;29774;52.664;5.074;2024-02-26T12:04:16;8.80;69.30
44111;DHT22;29774;52.664;5.074;2024-02-26T12:06:47;8.50;72.60
44111;DHT22;29774;52.664;5.074;2024-02-26T12:09:18;8.40;73.50
44111;DHT22;29774;52.664;5.074;2024-02-26T12:11:55;9.00;80.10
44111;DHT22;29774;52.664;5.074;2024-02-26T12:14:25;9.60;74.20
44111;DHT22;29774;52.664;5.074;2024-02-26T12:16:52;9.10;71.60
44111;DHT22;29774;52.664;5.074;2024-02-26T12:19:18;9.20;73.90
44111;DHT22;29774;52.664;5.074;2024-02-26T12:21:44;9.40;71.30
44111;DHT22;29774;52.664;5.074;2024-02-26T12:24:11;9.50;73.20
44111;DHT22;29774;52.664;5.074;2024-02-26T12:26:38;8.70;71.20
44111;DHT22;29774;52.664;5.074;2024-02-26T12:29:04;8.60;72.00
44111;DHT22;29774;52.664;5.074;2024-02-26T12:31:29;8.90;74.90
44111;DHT22;29774;52.664;5.074;2024-02-26T12:33:56;8.70;72.30
44111;DHT22;29774;52.664;5.074;2024-02-26T12:36:22;8.50;73.40
44111;DHT22;29774;52.664;5.074;2024-02-26T12:38:51;8.30;73.70
44111;DHT22;29774;52.664;5.074;2024-02-26T12:41:17;8.60;74.50
44111;DHT22;29774;52.664;5.074;2024-02-26T12:43:43;8.40;73.40
44111;DHT22;29774;52.664;5.074;2024-02-26T12:46:08;8.00;74.40
44111;DHT22;29774;52.664;5.074;2024-02-26T12:48:35;8.20;76.90
44111;DHT22;29774;52.664;5.074;2024-02-26T12:51:01;8.20;74.20
44111;DHT22;29774;52.664;5.074;2024-02-26T12:53:27;8.30;75.10
44111;DHT22;29774;52.664;5.074;2024-02-26T12:55:54;8.70;77.10
44111;DHT22;29774;52.664;5.074;2024-02-26T12:58:21;9.20;74.60
44111;DHT22;29774;52.664;5.074;2024-02-26T13:00:54;8.60;74.00
44111;DHT22;29774;52.664;5.074;2024-02-26T13:03:21;8.50;77.70
44111;DHT22;29774;52.664;5.074;2024-02-26T13:05:48;8.30;73.60
44111;DHT22;29774;52.664;5.074;2024-02-26T13:08:20;9.10;77.10
44111;DHT22;29774;52.664;5.074;2024-02-26T13:10:47;9.70;74.40
44111;DHT22;29774;52.664;5.074;2024-02-26T13:13:15;9.80;70.40
44111;DHT22;29774;52.664;5.074;2024-02-26T13:15:43;9.00;70.30
44111;DHT22;29774;52.664;5.074;2024-02-26T13:18:10;9.00;71.20
44111;DHT22;29774;52.664;5.074;2024-02-26T13:20:36;8.90;72.20
44111;DHT22;29774;52.664;5.074;2024-02-26T13:23:06;8.90;73.20
44111;DHT22;29774;52.664;5.074;2024-02-26T13:25:35;9.30;75.00
44111;DHT22;29774;52.664;5.074;2024-02-26T13:28:06;9.50;74.20
44111;DHT22;29774;52.664;5.074;2024-02-26T13:30:33;9.80;73.40
44111;DHT22;29774;52.664;5.074;2024-02-26T13:33:10;9.90;70.90
44111;DHT22;29774;52.664;5.074;2024-02-26T13:35:35;9.10;69.50
44111;DHT22;29774;52.664;5.074;2024-02-26T13:38:02;8.60;71.50
44111;DHT22;29774;52.664;5.074;2024-02-26T13:40:28;9.10;74.20
44111;DHT22;29774;52.664;5.074;2024-02-26T13:42:54;9.50;74.60
44111;DHT22;29774;52.664;5.074;2024-02-26T13:45:20;9.70;71.90
44111;DHT22;29774;52.664;5.074;2024-02-26T13:47:45;9.80;72.70
44111;DHT22;29774;52.664;5.074;2024-02-26T13:50:11;9.70;71.90
44111;DHT22;29774;52.664;5.074;2024-02-26T13:52:36;9.50;70.20
44111;DHT22;29774;52.664;5.074;2024-02-26T13:55:02;9.70;71.90
44111;DHT22;29774;52.664;5.074;2024-02-26T13:57:28;9.60;71.50
44111;DHT22;29774;52.664;5.074;2024-02-26T13:59:55;9.00;71.80
44111;DHT22;29774;52.664;5.074;2024-02-26T14:02:20;9.10;72.50
44111;DHT22;29774;52.664;5.074;2024-02-26T14:04:46;9.00;72.30
44111;DHT22;29774;52.664;5.074;2024-02-26T14:07:12;9.00;71.60
44111;DHT22;29774;52.664;5.074;2024-02-26T14:09:38;9.00;73.40
44111;DHT22;29774;52.664;5.074;2024-02-26T14:12:04;9.00;72.50
44111;DHT22;29774;52.664;5.074;2024-02-26T14:14:30;9.20;74.30
44111;DHT22;29774;52.664;5.074;2024-02-26T14:16:59;9.00;72.20
44111;DHT22;29774;52.664;5.074;2024-02-26T14:19:25;9.20;73.60
44111;DHT22;29774;52.664;5.074;2024-02-26T14:21:51;8.90;71.70
44111;DHT22;29774;52.664;5.074;2024-02-26T14:24:17;8.80;72.60
44111;DHT22;29774;52.664;5.074;2024-02-26T14:26:42;8.60;74.40
44111;DHT22;29774;52.664;5.074;2024-02-26T14:29:08;9.00;73.30
44111;DHT22;29774;52.664;5.074;2024-02-26T14:31:33;8.90;73.00
44111;DHT22;29774;52.664;5.074;2024-02-26T14:33:59;9.20;73.80
44111;DHT22;29774;52.664;5.074;2024-02-26T14:36:25;9.10;73.50
44111;DHT22;29774;52.664;5.074;2024-02-26T14:38:51;9.00;73.60
44111;DHT22;29774;52.664;5.074;2024-02-26T14:41:17;9.20;73.20
44111;DHT22;29774;52.664;5.074;2024-02-26T14:43:42;9.30;73.00
44111;DHT22;29774;52.664;5.074;2024-02-26T14:46:08;9.10;72.50
44111;DHT22;29774;52.664;5.074;2024-02-26T14:48:34;9.20;72.70
44111;DHT22;29774;52.664;5.074;2024-02-26T14:51:00;9.00;73.30
44111;DHT22;29774;52.664;5.074;2024-02-26T14:53:26;9.10;72.20
44111;DHT22;29774;52.664;5.074;2024-02-26T14:55:52;9.00;72.40
44111;DHT22;29774;52.664;5.074;2024-02-26T14:58:17;8.80;72.90
44111;DHT22;29774;52.664;5.074;2024-02-26T15:00:43;8.50;71.60
44111;DHT22;29774;52.664;5.074;2024-02-26T15:03:08;8.70;75.50
44111;DHT22;29774;52.664;5.074;2024-02-26T15:05:35;8.80;72.10
44111;DHT22;29774;52.664;5.074;2024-02-26T15:08:00;8.70;72.90
44111;DHT22;29774;52.664;5.074;2024-02-26T15:10:27;8.40;73.10
44111;DHT22;29774;52.664;5.074;2024-02-26T15:12:54;8.50;74.60
44111;DHT22;29774;52.664;5.074;2024-02-26T15:15:24;7.70;73.50
44111;DHT22;29774;52.664;5.074;2024-02-26T15:17:49;7.80;75.20
44111;DHT22;29774;52.664;5.074;2024-02-26T15:20:15;8.70;76.80
44111;DHT22;29774;52.664;5.074;2024-02-26T15:22:41;8.90;72.80
44111;DHT22;29774;52.664;5.074;2024-02-26T15:25:07;8.50;71.80
44111;DHT22;29774;52.664;5.074;2024-02-26T15:27:33;8.70;71.50
44111;DHT22;29774;52.664;5.074;2024-02-26T15:30:00;9.00;75.00
44111;DHT22;29774;52.664;5.074;2024-02-26T15:32:26;9.20;73.30
44111;DHT22;29774;52.664;5.074;2024-02-26T15:34:55;8.90;72.70
44111;DHT22;29774;52.664;5.074;2024-02-26T15:37:21;9.20;70.70
44111;DHT22;29774;52.664;5.074;2024-02-26T15:39:47;8.90;72.00
44111;DHT22;29774;52.664;5.074;2024-02-26T15:42:13;8.90;72.30
44111;DHT22;29774;52.664;5.074;2024-02-26T15:44:39;8.60;72.60
44111;DHT22;29774;52.664;5.074;2024-02-26T15:47:05;8.40;71.60
44111;DHT22;29774;52.664;5.074;2024-02-26T15:49:31;8.70;72.30